Time;durP1;ratioP1;P1;durP2;ratioP2;P2;SDS_P1;SDS_P2;PMS_P1;PMS_P2;Temp;Humidity;BMP_temperature;BMP_pressure;BME280_temperature;BME280_humidity;BME280_pressure;Samples;Min_cycle;Max_cycle;Signal;HPM_P1;HPM_P2
2022/05/30 00:00:12;;;;;;;7.25;2.33;;;;;;;-146.64;100.00;113059.81;5032852;28;20036;-78
2022/05/30 00:02:38;;;;;;;10.52;2.55;;;;;;;-146.64;100.00;114394.19;5070628;28;20120;-79
2022/05/30 00:05:04;;;;;;;15.65;2.65;;;;;;;-146.64;100.00;114928.06;5071751;28;20097;-78
2022/05/30 00:07:31;;;;;;;11.40;2.47;;;;;;;-146.64;100.00;115195.03;5030170;28;20115;-79
2022/05/30 00:09:56;;;;;;;10.20;2.03;;;;;;;-146.64;100.00;113860.38;5051258;28;20029;-79
2022/05/30 00:12:21;;;;;;;10.05;2.00;;;;;;;-146.64;100.00;113059.81;5064804;28;20510;-80
2022/05/30 00:14:47;;;;;;;15.55;2.15;;;;;;;-146.64;100.00;111992.59;5038763;28;20032;-78
2022/05/30 00:17:13;;;;;;;17.67;3.10;;;;;;;-146.64;100.00;111992.59;5029177;28;20052;-78
2022/05/30 00:19:39;;;;;;;7.82;2.50;;;;;;;-146.64;100.00;113059.81;5052683;28;20115;-79
2022/05/30 00:22:06;;;;;;;9.00;2.50;;;;;;;-146.64;100.00;113059.81;5048154;28;20048;-78
2022/05/30 00:24:32;;;;;;;10.50;2.15;;;;;;;-146.64;100.00;114661.13;5030572;28;20834;-79
2022/05/30 00:26:58;;;;;;;12.05;2.38;;;;;;;-146.64;100.00;113593.50;5053446;28;20063;-79
2022/05/30 00:29:23;;;;;;;14.80;2.60;;;;;;;-146.64;100.00;114394.19;5072225;28;20444;-79
2022/05/30 00:31:49;;;;;;;14.85;2.67;;;;;;;-146.64;100.00;114127.28;5051188;28;20078;-78
2022/05/30 00:34:14;;;;;;;15.63;2.20;;;;;;;-146.64;100.00;114661.13;5043524;28;20124;-78
2022/05/30 00:36:40;;;;;;;14.93;3.08;;;;;;;-146.64;100.00;115195.03;5022771;28;20040;-79
2022/05/30 00:39:05;;;;;;;11.60;2.13;;;;;;;-146.64;100.00;114928.06;5070771;28;20491;-78
2022/05/30 00:41:30;;;;;;;15.35;2.90;;;;;;;-146.64;100.00;116530.09;5070491;28;20032;-80
2022/05/30 00:43:56;;;;;;;16.15;2.42;;;;;;;-146.64;100.00;116263.06;5052054;28;20182;-79
2022/05/30 00:46:22;;;;;;;9.40;2.05;;;;;;;-146.64;100.00;116530.09;5053965;28;20492;-81
2022/05/30 00:48:51;;;;;;;11.75;3.22;;;;;;;-146.64;100.00;117064.25;5069690;28;20029;-79
2022/05/30 00:51:24;;;;;;;12.20;3.03;;;;;;;-146.64;100.00;116530.09;5070089;28;20031;-78
2022/05/30 00:53:53;;;;;;;6.15;2.00;;;;;;;-146.64;100.00;116797.16;5038464;28;20029;-80
2022/05/30 00:56:19;;;;;;;9.57;2.33;;;;;;;-146.64;100.00;117064.25;5035376;28;20028;-79
2022/05/30 00:58:47;;;;;;;13.38;3.40;;;;;;;-146.64;100.00;117598.47;5053397;28;20028;-79
2022/05/30 01:01:13;;;;;;;13.40;2.30;;;;;;;-146.64;100.00;117331.34;5067526;28;20029;-78
2022/05/30 01:06:32;;;;;;;12.77;2.97;;;;;;;-146.64;100.00;116797.16;5072881;28;20177;-79
2022/05/30 01:09:10;;;;;;;16.40;2.17;;;;;;;-146.64;100.00;117331.34;5041957;28;20017;-79
2022/05/30 01:11:57;;;;;;;13.77;2.22;;;;;;;-146.64;100.00;117865.63;5049205;28;20120;-79
2022/05/30 01:14:24;;;;;;;7.30;2.40;;;;;;;-146.64;100.00;118132.78;5032280;28;20484;-78
2022/05/30 01:16:50;;;;;;;11.88;2.65;;;;;;;-146.64;100.00;118132.78;5052441;28;20036;-79
2022/05/30 01:19:53;;;;;;;10.85;2.30;;;;;;;-146.64;100.00;118132.78;5052712;28;20039;-78
2022/05/30 01:22:40;;;;;;;11.23;2.90;;;;;;;-146.64;100.00;117865.63;5052923;28;20032;-78
2022/05/30 01:25:15;;;;;;;14.80;3.35;;;;;;;-146.64;100.00;117598.47;5046702;28;20089;-78
2022/05/30 01:27:43;;;;;;;16.10;3.33;;;;;;;-146.64;100.00;117865.63;5054401;28;20028;-78
2022/05/30 01:30:12;;;;;;;7.28;2.13;;;;;;;-146.64;100.00;118132.78;5070597;28;20131;-78
2022/05/30 01:32:37;;;;;;;10.43;2.35;;;;;;;-146.64;100.00;118399.94;5031127;28;20035;-78
2022/05/30 01:35:03;;;;;;;8.75;2.28;;;;;;;-146.64;100.00;118399.94;5037143;28;20441;-78
2022/05/30 01:37:28;;;;;;;12.35;2.30;;;;;;;-146.64;100.00;118402.03;5033663;28;20032;-78
2022/05/30 01:39:54;;;;;;;7.97;2.30;;;;;;;-146.64;100.00;118399.94;5052156;28;20020;-79
2022/05/30 01:42:19;;;;;;;9.68;2.58;;;;;;;-146.64;100.00;118399.94;5068899;28;20027;-78
2022/05/30 01:44:45;;;;;;;7.32;2.53;;;;;;;-146.64;100.00;118402.03;5049616;28;20131;-79
2022/05/30 01:47:11;;;;;;;7.97;2.40;;;;;;;-146.64;100.00;118402.03;5042068;28;20086;-80
2022/05/30 01:49:36;;;;;;;7.53;2.47;;;;;;;-146.64;100.00;118399.94;5037677;28;20037;-79
2022/05/30 01:52:02;;;;;;;9.93;2.70;;;;;;;-146.64;100.00;118399.94;5051998;28;20024;-78
2022/05/30 01:54:27;;;;;;;5.70;2.13;;;;;;;-146.64;100.00;118132.78;5069045;28;20141;-78
2022/05/30 01:56:53;;;;;;;11.27;3.17;;;;;;;-146.64;100.00;118132.78;5047665;28;20108;-78
2022/05/30 01:59:18;;;;;;;8.93;2.90;;;;;;;-146.64;100.00;118402.03;5048930;28;20082;-78
2022/05/30 02:01:45;;;;;;;12.25;2.50;;;;;;;-146.64;100.00;118402.03;5052403;28;20156;-80
2022/05/30 02:04:12;;;;;;;11.98;2.35;;;;;;;-146.64;100.00;118402.03;5065505;28;20150;-78
2022/05/30 02:06:37;;;;;;;8.77;2.17;;;;;;;-146.64;100.00;118399.94;5052617;28;20086;-77
2022/05/30 02:09:04;;;;;;;8.90;2.45;;;;;;;-146.64;100.00;118132.78;5048946;28;20029;-78
2022/05/30 02:11:29;;;;;;;9.98;2.17;;;;;;;-146.64;100.00;118399.94;5037422;28;20036;-79
2022/05/30 02:13:54;;;;;;;8.38;2.50;;;;;;;-146.64;100.00;118399.94;5069615;28;20033;-78
2022/05/30 02:19:05;;;;;;;9.88;3.25;;;;;;;-146.64;100.00;118402.03;5056257;28;20038;-77
2022/05/30 02:21:32;;;;;;;15.02;2.58;;;;;;;-146.64;100.00;118402.03;5036174;28;20465;-78
2022/05/30 02:23:58;;;;;;;6.18;2.50;;;;;;;-146.64;100.00;118402.03;5066643;28;20056;-78
2022/05/30 02:26:23;;;;;;;14.73;2.78;;;;;;;-146.64;100.00;118402.03;5053669;28;20116;-78
2022/05/30 02:28:49;;;;;;;10.90;2.80;;;;;;;-146.64;100.00;118402.03;5051230;28;20028;-78
2022/05/30 02:31:14;;;;;;;10.50;2.47;;;;;;;-146.64;100.00;118402.03;5061462;28;20439;-78
2022/05/30 02:36:39;;;;;;;9.25;2.83;;;;;;;-146.64;100.00;118402.03;5071150;28;20063;-79
2022/05/30 02:39:04;;;;;;;10.85;2.65;;;;;;;-146.64;100.00;118402.03;5029859;28;20033;-78
2022/05/30 02:41:30;;;;;;;10.63;3.08;;;;;;;-146.64;100.00;118399.94;5022145;28;20035;-80
2022/05/30 02:43:55;;;;;;;13.70;2.63;;;;;;;-146.64;100.00;118132.78;5069006;28;20032;-79
2022/05/30 02:46:21;;;;;;;13.02;3.03;;;;;;;-146.64;100.00;118399.94;5070168;28;20128;-78
2022/05/30 02:48:46;;;;;;;10.20;3.08;;;;;;;-146.64;100.00;118399.94;5065753;28;20039;-79
2022/05/30 02:51:12;;;;;;;9.48;2.85;;;;;;;-146.64;100.00;118402.03;5052072;28;20038;-78
2022/05/30 02:53:37;;;;;;;10.98;3.05;;;;;;;-146.64;100.00;118402.03;5044288;28;20047;-79
2022/05/30 02:56:03;;;;;;;7.97;2.70;;;;;;;-146.64;100.00;118402.03;5034430;28;20032;-78
2022/05/30 02:58:29;;;;;;;8.63;2.95;;;;;;;-146.64;100.00;118402.03;5054134;28;20375;-78
2022/05/30 03:00:54;;;;;;;9.38;2.63;;;;;;;-146.64;100.00;118402.03;5034976;28;20035;-80
2022/05/30 03:03:19;;;;;;;11.63;2.88;;;;;;;-146.64;100.00;118402.03;5055732;28;20607;-78
2022/05/30 03:05:46;;;;;;;11.38;2.70;;;;;;;-146.64;100.00;118402.03;5032628;28;20037;-81
2022/05/30 03:08:12;;;;;;;10.38;2.50;;;;;;;-146.64;100.00;118402.03;5052405;28;20556;-78
2022/05/30 03:10:37;;;;;;;12.00;2.75;;;;;;;-146.64;100.00;118402.03;5055730;28;20025;-78
2022/05/30 03:13:03;;;;;;;11.52;3.45;;;;;;;-146.64;100.00;118402.03;5069939;28;20028;-79
2022/05/30 03:15:29;;;;;;;8.52;2.63;;;;;;;-146.64;100.00;118402.03;5056118;28;20078;-79
2022/05/30 03:17:54;;;;;;;10.90;3.10;;;;;;;-146.64;100.00;118402.03;5053648;28;20483;-78
2022/05/30 03:20:20;;;;;;;12.45;3.70;;;;;;;-146.64;100.00;118402.03;5039356;28;20398;-78
2022/05/30 03:22:47;;;;;;;14.10;2.92;;;;;;;-146.64;100.00;118402.03;5038276;28;20040;-79
2022/05/30 03:25:13;;;;;;;9.52;3.03;;;;;;;-146.64;100.00;118402.03;5060625;28;20033;-78
2022/05/30 03:27:38;;;;;;;6.50;3.17;;;;;;;-146.64;100.00;118402.03;5050286;28;20045;-79
2022/05/30 03:30:04;;;;;;;14.77;3.42;;;;;;;-146.64;100.00;118402.03;5047777;28;20125;-79
2022/05/30 03:32:29;;;;;;;3.85;2.50;;;;;;;-146.64;100.00;118402.03;5049493;28;20105;-77
2022/05/30 03:35:01;;;;;;;9.30;2.47;;;;;;;-146.64;100.00;118402.03;5039006;28;20082;-79
2022/05/30 03:37:27;;;;;;;9.98;2.78;;;;;;;-146.64;100.00;118402.03;5065338;28;20059;-79
2022/05/30 03:39:52;;;;;;;7.17;2.37;;;;;;;-146.64;100.00;118402.03;5055253;28;20037;-79
2022/05/30 03:42:18;;;;;;;8.18;2.67;;;;;;;-146.64;100.00;118402.03;5053432;28;20392;-78
2022/05/30 03:44:44;;;;;;;7.63;2.43;;;;;;;-146.64;100.00;118402.03;5046184;28;20025;-79
2022/05/30 03:47:09;;;;;;;10.32;2.90;;;;;;;-146.64;100.00;118402.03;5072040;28;20428;-78
2022/05/30 03:49:35;;;;;;;12.98;2.83;;;;;;;-146.64;100.00;118402.03;5036784;28;20111;-78
2022/05/30 03:52:00;;;;;;;9.25;2.90;;;;;;;-146.64;100.00;118402.03;5071307;28;20032;-78
2022/05/30 03:54:26;;;;;;;10.65;2.20;;;;;;;-146.64;100.00;118402.03;5053112;28;20401;-78
2022/05/30 03:56:52;;;;;;;13.50;2.55;;;;;;;-146.64;100.00;118402.03;5053915;28;20032;-78
2022/05/30 03:59:17;;;;;;;11.25;3.25;;;;;;;-146.64;100.00;118402.03;5036421;28;20066;-78
2022/05/30 04:01:43;;;;;;;5.25;2.00;;;;;;;-146.64;100.00;118402.03;5034838;28;20028;-78
2022/05/30 04:04:10;;;;;;;6.68;2.50;;;;;;;-146.64;100.00;118402.03;5051643;28;20674;-79
2022/05/30 04:06:35;;;;;;;12.10;2.58;;;;;;;-146.64;100.00;118402.03;5053833;28;20086;-77
2022/05/30 04:09:01;;;;;;;4.80;1.80;;;;;;;-146.64;100.00;118402.03;5059046;28;20028;-79
2022/05/30 04:11:26;;;;;;;10.20;2.20;;;;;;;-146.64;100.00;118402.03;5052375;28;20039;-79
2022/05/30 04:13:52;;;;;;;7.43;2.83;;;;;;;-146.64;100.00;118402.03;5052514;28;20032;-80
2022/05/30 04:16:17;;;;;;;8.27;2.40;;;;;;;-146.64;100.00;118402.03;5039657;28;20074;-80
2022/05/30 04:18:45;;;;;;;6.88;2.42;;;;;;;-146.64;100.00;118402.03;5035507;28;20033;-79
2022/05/30 04:21:11;;;;;;;12.60;2.60;;;;;;;-146.64;100.00;118402.03;5052503;28;20498;-80
2022/05/30 04:23:40;;;;;;;8.52;2.40;;;;;;;-146.64;100.00;118402.03;5061646;28;20029;-79
2022/05/30 04:26:09;;;;;;;10.50;2.60;;;;;;;-146.64;100.00;118402.03;5063668;28;20024;-80
2022/05/30 04:28:34;;;;;;;13.95;3.70;;;;;;;-146.64;100.00;118402.03;5069371;28;20111;-79
2022/05/30 04:31:05;;;;;;;14.35;5.78;;;;;;;-146.64;100.00;118402.03;5036674;28;20539;-79
2022/05/30 04:33:32;;;;;;;12.93;5.30;;;;;;;-146.64;100.00;118402.03;5022497;28;20487;-79
2022/05/30 04:35:58;;;;;;;8.45;3.67;;;;;;;-146.64;100.00;118399.94;5054172;28;20020;-81
2022/05/30 04:38:23;;;;;;;8.23;2.88;;;;;;;-146.64;100.00;118132.78;5050663;28;20463;-81
2022/05/30 04:40:50;;;;;;;6.75;2.90;;;;;;;-146.64;100.00;117331.34;5066406;28;20050;-79
2022/05/30 04:43:16;;;;;;;10.55;3.38;;;;;;;-146.64;100.00;116263.06;5052751;28;20077;-80
2022/05/30 04:45:41;;;;;;;15.98;2.95;;;;;;;-146.64;100.00;114928.06;5052858;28;20040;-81
2022/05/30 04:48:06;;;;;;;5.90;2.57;;;;;;;-146.64;100.00;114127.28;5052145;28;20044;-80
2022/05/30 04:50:32;;;;;;;9.20;2.88;;;;;;;-146.64;100.00;113059.81;5059750;28;20024;-80
2022/05/30 04:52:57;;;;;;;9.27;2.85;;;;;;;-146.64;100.00;112526.16;5070442;28;20175;-80
2022/05/30 04:55:23;;;;;;;8.23;2.58;;;;;;;-146.64;100.00;112526.16;5047544;28;20032;-79
2022/05/30 04:57:49;;;;;;;10.65;3.08;;;;;;;-146.64;100.00;112259.38;5050453;28;20093;-80
2022/05/30 05:00:19;;;;;;;18.13;3.17;;;;;;;-146.64;100.00;111459.13;5050603;28;20086;-79
2022/05/30 05:02:44;;;;;;;9.02;2.78;;;;;;;-146.64;100.00;110125.69;5068444;28;20051;-80
2022/05/30 05:05:10;;;;;;;12.52;3.42;;;;;;;-146.64;100.00;108526.16;5069281;28;20041;-79
2022/05/30 05:07:47;;;;;;;16.23;3.00;;;;;;;-146.64;100.00;107193.69;5066664;28;20052;-79
2022/05/30 05:10:31;;;;;;;13.30;3.30;;;;;;;-146.64;100.00;105595.31;5039997;28;20025;-79
2022/05/30 05:12:56;;;;;;;10.75;2.63;;;;;;;-146.64;100.00;104530.09;5068649;28;20471;-79
2022/05/30 05:15:22;;;;;;;9.77;3.33;;;;;;;-146.64;100.00;100005.94;5052815;28;20032;-78
2022/05/30 05:17:47;;;;;;;10.75;2.78;;;;;;;-146.64;100.00;81695.03;5052346;28;20547;-79
2022/05/30 05:20:13;;;;;;;10.68;2.53;;;;;;;-146.64;100.00;37991.34;5041118;28;20196;-77
2022/05/30 05:22:40;;;;;;;8.27;2.60;;;;;;;-146.64;100.00;36917.41;5066907;28;20032;-77
2022/05/30 05:25:06;;;;;;;8.43;2.10;;;;;;;-146.64;100.00;37496.28;5066163;28;20047;-79
2022/05/30 05:27:31;;;;;;;7.78;2.08;;;;;;;-146.64;100.00;37977.03;5051339;28;20071;-78
2022/05/30 05:29:57;;;;;;;11.73;2.30;;;;;;;-146.64;100.00;38298.25;5035510;28;20033;-78
2022/05/30 05:32:22;;;;;;;9.63;3.00;;;;;;;-146.64;100.00;38195.94;5064387;28;20108;-78
2022/05/30 05:34:50;;;;;;;6.17;1.83;;;;;;;-146.64;100.00;38249.13;5051495;28;20056;-78
2022/05/30 05:37:16;;;;;;;8.63;2.10;;;;;;;-146.64;100.00;38347.34;5049546;28;20028;-77
2022/05/30 05:39:42;;;;;;;13.20;2.08;;;;;;;-146.64;100.00;38306.44;5051569;28;20024;-77
2022/05/30 05:42:12;;;;;;;7.10;1.83;;;;;;;-146.64;100.00;38277.78;5042135;28;20042;-78
2022/05/30 05:44:38;;;;;;;10.23;2.35;;;;;;;-146.64;100.00;38167.31;5067983;28;20024;-79
2022/05/30 05:47:05;;;;;;;8.20;2.47;;;;;;;-146.64;100.00;38302.34;5047579;28;20755;-77
2022/05/30 05:49:30;;;;;;;8.70;2.17;;;;;;;-146.64;100.00;38187.75;5061388;28;20436;-77
2022/05/30 05:51:56;;;;;;;11.93;2.27;;;;;;;-146.64;99.35;38191.84;5067526;28;20056;-79
2022/05/30 05:54:23;;;;;;;6.93;1.70;;;;;;;-146.64;95.42;38275.75;5050126;28;20079;-78
2022/05/30 05:56:49;;;;;;;7.53;1.52;;;;;;;-146.64;94.97;38195.94;5045456;28;20484;-78
2022/05/30 05:59:14;;;;;;;9.30;1.80;;;;;;;-146.64;92.93;38220.50;5047120;28;20103;-79
2022/05/30 06:01:39;;;;;;;10.07;2.17;;;;;;;-146.64;89.84;38208.22;5048459;28;20029;-78
2022/05/30 06:04:07;;;;;;;6.40;1.47;;;;;;;-146.64;88.08;37893.16;5068395;28;20129;-78
2022/05/30 06:06:33;;;;;;;6.30;1.77;;;;;;;-146.64;88.19;38060.91;5047842;28;20454;-78
2022/05/30 06:09:00;;;;;;;9.10;2.00;;;;;;;-146.64;85.29;38097.75;5047876;28;20061;-78
2022/05/30 06:11:25;;;;;;;8.68;1.58;;;;;;;-146.64;85.26;38013.84;5032564;28;20037;-78
2022/05/30 06:13:51;;;;;;;8.57;1.73;;;;;;;-146.64;79.06;37946.34;5065447;28;20044;-78
2022/05/30 06:16:30;;;;;;;8.70;1.90;;;;;;;-146.64;73.96;37907.47;5030800;28;20033;-78
2022/05/30 06:18:59;;;;;;;6.13;1.58;;;;;;;-146.64;75.51;37884.97;5031029;28;20426;-79
2022/05/30 06:21:26;;;;;;;10.68;1.85;;;;;;;-146.64;82.96;38003.63;5045031;28;20033;-79
2022/05/30 06:23:53;;;;;;;7.05;1.73;;;;;;;-146.64;70.10;37917.69;5032733;28;20036;-79
2022/05/30 06:26:19;;;;;;;13.00;2.15;;;;;;;-146.64;78.80;38124.34;5050077;28;20064;-79
2022/05/30 06:28:45;;;;;;;6.57;1.73;;;;;;;-146.64;80.13;38110.00;5056492;28;20029;-80
2022/05/30 06:31:12;;;;;;;7.33;1.87;;;;;;;-146.64;75.05;37983.16;5029319;28;20029;-79
2022/05/30 06:33:38;;;;;;;6.95;1.40;;;;;;;-146.64;73.03;38034.31;5068084;28;20032;-80
2022/05/30 06:36:05;;;;;;;10.82;2.65;;;;;;;-146.64;74.52;37968.84;5052157;28;20024;-80
2022/05/30 06:38:30;;;;;;;9.52;2.13;;;;;;;-146.64;67.01;37756.06;5044901;28;20031;-80
2022/05/30 06:40:57;;;;;;;7.97;1.30;;;;;;;-146.64;59.97;37788.81;5049844;28;20375;-81
2022/05/30 06:43:22;;;;;;;7.90;1.73;;;;;;;-146.64;63.87;37688.56;5071587;28;20107;-81
2022/05/30 06:45:48;;;;;;;13.57;2.27;;;;;;;-146.64;57.72;37788.81;5052458;28;20585;-80
2022/05/30 06:48:14;;;;;;;8.68;1.58;;;;;;;-146.64;65.28;38146.84;5038418;28;20086;-80
2022/05/30 06:50:40;;;;;;;6.03;1.52;;;;;;;-146.64;63.81;38271.66;5053267;28;20090;-80
2022/05/30 06:53:06;;;;;;;4.23;1.33;;;;;;;-146.64;75.41;38337.13;5068256;28;20087;-80
2022/05/30 06:55:32;;;;;;;6.65;1.50;;;;;;;-146.64;65.32;38054.78;5069433;28;20059;-79
2022/05/30 06:58:12;;;;;;;5.00;1.48;;;;;;;-146.64;72.68;38312.56;5070484;28;20067;-78
2022/05/30 07:00:38;;;;;;;5.80;1.50;;;;;;;-146.64;61.86;38073.19;5054737;28;20032;-78
2022/05/30 07:03:03;;;;;;;5.67;1.43;;;;;;;-146.64;61.56;38017.94;5054985;28;20036;-78
2022/05/30 07:05:29;;;;;;;5.90;1.67;;;;;;;-146.64;62.21;37958.63;5052652;28;20269;-77
2022/05/30 07:07:56;;;;;;;7.93;1.30;;;;;;;-146.64;62.08;38224.59;5034037;28;20040;-79
2022/05/30 07:10:21;;;;;;;;;;;;;;;-146.64;57.20;38050.69;5054181;28;20107;-78
2022/05/30 07:12:47;;;;;;;10.60;1.15;;;;;;;-146.64;61.53;37983.16;5062283;28;19923;-78
2022/05/30 07:15:13;;;;;;;8.13;1.70;;;;;;;-146.64;59.44;37899.28;5063647;28;20032;-78
2022/05/30 07:17:38;;;;;;;5.55;1.25;;;;;;;-146.64;59.36;37901.31;5063216;28;20041;-78
2022/05/30 07:20:04;;;;;;;9.47;1.30;;;;;;;-146.64;61.74;37887.00;5063947;28;20115;-80
2022/05/30 07:22:30;;;;;;;6.53;1.60;;;;;;;-146.64;60.01;37866.56;5049095;28;20120;-81
2022/05/30 07:24:57;;;;;;;5.93;1.63;;;;;;;-146.64;55.49;37846.09;5063598;28;20192;-82
2022/05/30 07:27:23;;;;;;;11.13;1.35;;;;;;;-146.64;59.76;37940.19;5062380;28;20040;-80
2022/05/30 07:29:50;;;;;;;5.25;1.30;;;;;;;-146.64;58.09;37940.19;5052993;28;20044;-81
2022/05/30 07:32:15;;;;;;;;;;;;;;;-146.64;65.79;37860.41;5035919;28;20032;-81
2022/05/30 07:34:40;;;;;;;8.68;1.35;;;;;;;-146.64;56.03;37854.28;5050872;28;20014;-81
2022/05/30 07:37:06;;;;;;;7.50;1.85;;;;;;;-146.64;56.66;37852.22;5047301;28;20112;-81
2022/05/30 07:39:37;;;;;;;6.80;1.10;;;;;;;-146.64;58.83;37962.72;5071423;28;20084;-81
2022/05/30 07:42:04;;;;;;;10.18;1.65;;;;;;;-146.64;55.43;38097.75;5050699;28;20118;-80
2022/05/30 07:44:30;;;;;;;7.05;1.27;;;;;;;-146.64;61.48;38341.22;5078059;28;20028;-81
2022/05/30 07:46:56;;;;;;;5.63;1.60;;;;;;;-146.64;63.06;38470.13;5054126;28;20035;-81
2022/05/30 07:49:22;;;;;;;6.15;1.30;;;;;;;-146.64;65.98;38531.50;5050568;28;20028;-81
2022/05/30 07:51:47;;;;;;;8.03;1.53;;;;;;;-146.64;70.10;38621.53;5053321;28;20044;-80
2022/05/30 07:54:13;;;;;;;6.57;1.47;;;;;;;-146.64;75.92;38609.25;5034373;28;20089;-81
2022/05/30 07:56:39;;;;;;;7.53;1.45;;;;;;;-146.64;72.16;38684.97;5053042;28;20101;-80
2022/05/30 07:59:04;;;;;;;5.90;1.03;;;;;;;-146.64;76.76;38660.41;5043171;28;20036;-80
2022/05/30 08:01:30;;;;;;;6.47;1.50;;;;;;;-146.64;76.13;38695.19;5054028;28;20040;-80
2022/05/30 08:03:55;;;;;;;8.07;1.27;;;;;;;-146.64;74.71;38662.47;5070471;28;20036;-80
2022/05/30 08:06:25;;;;;;;9.07;1.10;;;;;;;-146.64;77.99;38429.19;5031682;28;20260;-81
2022/05/30 08:08:51;;;;;;;7.70;1.38;;;;;;;-146.64;77.31;38468.06;5053838;28;20041;-81
2022/05/30 08:11:17;;;;;;;5.18;1.33;;;;;;;-146.64;75.18;38396.47;5067972;28;20040;-80
2022/05/30 08:13:47;;;;;;;3.92;1.13;;;;;;;-146.64;71.01;38543.78;5038430;28;20028;-80
2022/05/30 08:16:22;;;;;;;6.85;1.85;;;;;;;-146.64;70.15;38556.06;5055499;28;20028;-79
2022/05/30 08:18:47;;;;;;;4.43;1.35;;;;;;;-146.64;69.34;38648.13;5055550;28;20166;-84
2022/05/30 08:21:15;;;;;;;4.27;1.00;;;;;;;-146.64;68.68;38678.84;5056105;28;20048;-79
2022/05/30 08:23:41;;;;;;;5.60;1.83;;;;;;;-146.64;75.28;38588.81;5071083;28;20039;-79
2022/05/30 08:26:07;;;;;;;5.70;1.70;;;;;;;-146.64;75.29;38662.47;5054017;28;20032;-80
2022/05/30 08:28:33;;;;;;;6.78;1.88;;;;;;;-146.64;71.84;38656.31;5052125;28;20029;-82
2022/05/30 08:30:59;;;;;;;;;;;;;;;-146.64;71.47;38699.28;5037017;28;20049;-80
2022/05/30 08:33:25;;;;;;;5.53;1.27;;;;;;;-146.64;74.74;38680.88;5069899;28;19916;-81
2022/05/30 08:35:58;;;;;;;7.03;1.23;;;;;;;-146.64;74.06;38713.63;5054462;28;20074;-80
2022/05/30 08:38:23;;;;;;;7.25;1.70;;;;;;;-146.64;78.58;38727.94;5044794;28;20068;-80
2022/05/30 08:43:37;;;;;;;7.22;1.40;;;;;;;-146.64;80.33;38742.28;5054156;28;20032;-78
2022/05/30 08:46:24;;;;;;;3.78;1.08;;;;;;;-146.64;80.04;38744.31;5059087;28;20025;-81
2022/05/30 08:49:11;;;;;;;4.93;1.23;;;;;;;-146.64;82.71;38719.75;5053443;28;20051;-79
2022/05/30 08:52:02;;;;;;;6.23;1.53;;;;;;;-146.64;83.08;38732.03;5056368;28;20456;-80
2022/05/30 08:54:33;;;;;;;7.45;1.38;;;;;;;-146.64;81.35;38715.66;5051531;28;20533;-81
2022/05/30 08:57:00;;;;;;;4.70;1.27;;;;;;;-146.64;82.33;38736.13;5075775;28;20029;-82
2022/05/30 08:59:50;;;;;;;4.93;1.20;;;;;;;-146.64;84.14;38719.75;5042002;28;20539;-82
2022/05/30 09:02:24;;;;;;;4.88;1.65;;;;;;;-146.64;81.71;38760.69;5053192;28;20067;-80
2022/05/30 09:04:54;;;;;;;3.22;1.13;;;;;;;-146.64;85.12;38748.41;5052569;28;20044;-79
2022/05/30 09:07:27;;;;;;;6.93;1.40;;;;;;;-146.64;85.39;38568.34;5056717;28;20384;-80
2022/05/30 09:10:03;;;;;;;7.50;2.17;;;;;;;-146.64;82.44;38730.00;5066437;28;20072;-80
2022/05/30 09:12:45;;;;;;;6.43;1.50;;;;;;;-146.64;82.55;38760.69;5065094;28;20033;-80
2022/05/30 09:15:17;;;;;;;4.82;1.83;;;;;;;-146.64;84.14;38654.28;5072781;28;20029;-83
2022/05/30 09:18:04;;;;;;;7.05;1.40;;;;;;;-146.64;82.96;38748.41;5051546;28;20207;-82
2022/05/30 09:20:31;;;;;;;11.05;2.03;;;;;;;-146.64;81.12;38727.94;5051351;28;20032;-82
2022/05/30 09:23:01;;;;;;;5.80;1.52;;;;;;;-146.64;84.05;38711.56;5045917;28;20036;-82
2022/05/30 09:28:25;;;;;;;9.63;1.75;;;;;;;-146.64;83.16;38740.22;5067334;28;20048;-79
2022/05/30 09:31:21;;;;;;;4.00;1.45;;;;;;;-146.64;80.92;38734.09;5052617;28;20147;-80
2022/05/30 09:33:56;;;;;;;5.97;1.52;;;;;;;-146.64;81.97;38748.41;5070757;28;20364;-81
2022/05/30 09:36:26;;;;;;;8.80;1.77;;;;;;;-146.64;84.45;38740.22;5059704;28;20167;-81
2022/05/30 09:39:05;;;;;;;6.35;1.42;;;;;;;-146.64;85.19;38727.94;5049190;28;20676;-80
2022/05/30 09:41:42;;;;;;;10.93;1.50;;;;;;;-146.64;82.87;38789.34;5051319;28;20157;-81
2022/05/30 09:44:22;;;;;;;8.52;1.38;;;;;;;-146.64;83.69;38580.63;5063344;28;20040;-80
2022/05/30 09:46:53;;;;;;;5.65;1.10;;;;;;;-146.64;86.81;38730.00;5046036;28;20167;-80
2022/05/30 09:49:24;;;;;;;4.57;1.50;;;;;;;-146.64;88.08;38719.75;5072138;28;20115;-80
2022/05/30 09:52:02;;;;;;;6.63;1.52;;;;;;;-146.64;87.95;38713.63;5064880;28;20472;-80
2022/05/30 09:54:39;;;;;;;4.60;1.45;;;;;;;-146.64;87.40;38766.81;5065568;28;20373;-80
2022/05/30 09:57:07;;;;;;;4.43;1.40;;;;;;;-146.64;89.15;38707.47;5050195;28;20028;-80
2022/05/30 09:59:39;;;;;;;3.65;1.00;;;;;;;-146.64;89.21;38691.13;5049722;28;20104;-80
2022/05/30 10:02:34;;;;;;;4.30;1.17;;;;;;;-146.64;87.64;38711.56;5049146;28;20020;-79
2022/05/30 10:05:06;;;;;;;8.25;1.88;;;;;;;-146.64;86.14;38689.06;5049757;28;20037;-80
2022/05/30 10:07:34;;;;;;;9.70;1.23;;;;;;;-146.64;87.49;38648.13;5047221;28;20040;-80
2022/05/30 10:10:19;;;;;;;12.27;1.70;;;;;;;-146.64;84.48;38732.03;5052673;28;20132;-79
2022/05/30 10:13:10;;;;;;;6.55;1.58;;;;;;;-146.64;82.26;38723.84;5060616;28;20452;-80
2022/05/30 10:15:38;;;;;;;5.70;1.23;;;;;;;-146.64;83.42;38695.19;5058267;28;20033;-80
2022/05/30 10:18:26;;;;;;;10.90;1.83;;;;;;;-146.64;82.34;38723.84;5048824;28;20024;-79
2022/05/30 10:21:03;;;;;;;5.70;1.65;;;;;;;-146.64;80.68;38715.66;5039008;28;20039;-80
2022/05/30 10:28:14;;;;;;;7.35;1.20;;;;;;;-146.64;80.98;38682.94;5066183;28;20047;-79
2022/05/30 10:29:58;;;;;;;3.57;1.47;;;;;;;-146.64;81.30;38609.25;5064351;28;20515;-80
2022/05/30 10:33:11;;;;;;;12.57;1.63;;;;;;;-146.64;77.81;38654.28;5053681;28;20593;-80
2022/05/30 10:35:54;;;;;;;4.57;1.58;;;;;;;-146.64;76.43;38678.84;5054937;28;20045;-80
2022/05/30 10:38:39;;;;;;;9.68;1.55;;;;;;;-146.64;76.53;38633.81;5053079;28;20148;-80
2022/05/30 10:41:12;;;;;;;3.35;1.05;;;;;;;-146.64;75.73;38527.41;5072492;28;20032;-80
2022/05/30 10:44:03;;;;;;;7.68;1.27;;;;;;;-146.64;76.83;38568.34;5061475;28;20027;-80
2022/05/30 10:46:43;;;;;;;5.72;1.80;;;;;;;-146.64;76.00;38547.88;5054561;28;20047;-79
2022/05/30 10:49:19;;;;;;;3.40;1.20;;;;;;;-146.64;74.39;38423.06;5052982;28;20032;-81
2022/05/30 10:51:52;;;;;;;10.70;2.10;;;;;;;-146.64;72.82;38480.34;5051400;28;20033;-80
2022/05/30 10:54:42;;;;;;;5.20;1.25;;;;;;;-146.64;70.84;38515.13;5054329;28;20159;-80
2022/05/30 10:57:26;;;;;;;6.20;1.60;;;;;;;-146.64;70.41;38539.69;5053013;28;20029;-81
2022/05/30 11:00:05;;;;;;;5.28;1.05;;;;;;;-146.64;69.28;38470.13;5048399;28;20044;-81
2022/05/30 11:02:55;;;;;;;24.30;2.45;;;;;;;-146.64;66.53;38449.66;5043615;28;20147;-78
2022/05/30 11:05:26;;;;;;;10.20;1.50;;;;;;;-146.64;65.14;38423.06;5063656;28;20048;-79
2022/05/30 11:07:58;;;;;;;5.93;1.30;;;;;;;-146.64;64.73;38400.56;5050382;28;20033;-78
2022/05/30 11:10:26;;;;;;;6.80;1.30;;;;;;;-146.64;65.84;38429.19;5049572;28;20028;-79
2022/05/30 11:13:09;;;;;;;7.28;1.35;;;;;;;-146.64;64.00;38414.88;5068509;28;20609;-78
2022/05/30 11:15:47;;;;;;;5.28;1.65;;;;;;;-146.64;62.86;38433.28;5073307;28;20033;-78
2022/05/30 11:18:28;;;;;;;4.80;1.13;;;;;;;-146.64;61.78;38349.41;5064039;28;20024;-79
2022/05/30 11:21:16;;;;;;;7.97;1.55;;;;;;;-146.64;59.39;38249.13;5047305;28;20094;-78
2022/05/30 11:23:42;;;;;;;5.95;1.77;;;;;;;-146.64;58.59;38267.56;5068916;28;20032;-77
2022/05/30 11:26:36;;;;;;;4.47;1.43;;;;;;;-146.64;59.87;38150.94;5054041;28;20051;-78
2022/05/30 11:29:20;;;;;;;8.00;1.40;;;;;;;-146.64;58.00;38173.44;5054754;28;20392;-77
2022/05/30 11:31:54;;;;;;;6.88;1.73;;;;;;;-146.64;62.54;38161.16;5066446;28;20048;-78
2022/05/30 11:34:52;;;;;;;6.85;1.20;;;;;;;-146.64;63.70;38206.19;5059291;28;20071;-76